createdAt,value
2022-12-06T17:41:31.267Z,4.77
2022-12-06T17:42:21.964Z,4.76
2022-12-06T17:43:56.772Z,4.76
2022-12-06T17:44:28.599Z,4.76
2022-12-06T17:45:00.858Z,4.76
2022-12-06T17:45:33.005Z,4.75
2022-12-06T17:46:04.968Z,4.75
2022-12-06T17:46:36.838Z,4.64
2022-12-06T17:47:08.673Z,4.64
2022-12-06T17:47:40.505Z,4.45
2022-12-06T17:48:12.321Z,4.66
2022-12-06T17:48:46.716Z,4.65
2022-12-06T17:49:18.537Z,4.67
2022-12-06T17:49:50.364Z,4.63
2022-12-06T17:50:22.214Z,4.58
2022-12-06T17:50:54.042Z,4.59
2022-12-06T17:51:25.854Z,4.58
2022-12-06T17:51:57.676Z,4.57
2022-12-06T17:52:29.494Z,4.59
2022-12-06T17:53:01.319Z,4.59
2022-12-06T17:53:33.137Z,4.60
2022-12-06T17:54:09.219Z,4.60
2022-12-06T17:54:41.423Z,4.55
2022-12-06T17:55:13.253Z,4.58
2022-12-06T17:55:45.081Z,4.58
2022-12-06T17:56:16.924Z,4.58
2022-12-06T17:56:48.759Z,4.57
2022-12-06T17:57:20.602Z,4.57
2022-12-06T17:57:52.642Z,4.58
2022-12-06T17:58:24.467Z,4.58
2022-12-06T17:58:56.305Z,4.58
2022-12-06T17:59:28.129Z,4.58
2022-12-06T17:59:59.960Z,4.58
2022-12-06T18:00:31.808Z,4.58
2022-12-06T18:01:03.694Z,4.57
2022-12-06T18:02:06.061Z,4.57
2022-12-06T18:02:27.457Z,4.56
2022-12-06T18:02:59.515Z,4.56
2022-12-06T18:03:31.470Z,4.56
2022-12-06T18:05:16.235Z,4.66
2022-12-06T18:05:48.057Z,4.65
2022-12-06T18:06:19.886Z,4.73
2022-12-06T18:06:51.707Z,4.73
2022-12-06T18:07:23.558Z,4.73
2022-12-06T18:07:55.497Z,4.73
2022-12-06T18:08:27.461Z,4.73
2022-12-06T18:08:59.328Z,4.73
2022-12-06T18:09:31.153Z,4.73
2022-12-06T18:10:02.988Z,4.73
2022-12-06T18:10:34.829Z,4.73
2022-12-06T18:11:06.665Z,4.73
2022-12-06T18:11:38.483Z,4.73
2022-12-06T18:12:10.309Z,4.73
2022-12-06T18:12:42.145Z,4.73
2022-12-06T18:13:13.994Z,4.73
2022-12-06T18:13:45.823Z,4.73
2022-12-06T18:14:17.651Z,4.74
2022-12-06T18:14:49.473Z,4.73
2022-12-06T18:15:21.309Z,4.73
2022-12-06T18:15:53.142Z,4.73
2022-12-06T18:17:28.208Z,4.72
2022-12-06T18:18:00.047Z,4.73
2022-12-06T18:18:31.876Z,4.73
2022-12-06T18:19:08.355Z,4.72
2022-12-06T18:19:40.494Z,4.72
2022-12-06T18:20:12.327Z,4.72
2022-12-06T18:20:44.169Z,4.72
2022-12-06T18:21:15.998Z,4.72
2022-12-06T18:21:47.857Z,4.72
2022-12-06T18:22:19.683Z,4.72
2022-12-06T18:22:51.515Z,4.71
2022-12-06T18:25:52.910Z,4.69
2022-12-06T18:27:28.493Z,4.72
2022-12-06T18:28:00.318Z,4.72
2022-12-06T18:28:32.155Z,4.72
2022-12-06T18:29:03.977Z,4.72
2022-12-06T18:29:35.781Z,4.72
2022-12-06T18:30:07.633Z,4.72
2022-12-06T18:30:39.459Z,4.72
2022-12-06T18:31:11.283Z,4.72
2022-12-06T18:31:43.188Z,4.72
2022-12-06T18:33:10.552Z,4.73
2022-12-06T18:33:42.403Z,4.73
2022-12-06T18:34:14.231Z,4.74
2022-12-06T18:34:46.049Z,4.74
2022-12-06T18:35:17.868Z,4.73
2022-12-06T18:35:49.700Z,4.73
2022-12-06T18:36:21.535Z,4.73
2022-12-06T18:36:53.355Z,4.73
2022-12-06T18:37:25.179Z,4.73
2022-12-06T18:37:57.001Z,4.73
2022-12-06T18:38:28.812Z,4.72
2022-12-06T18:39:00.636Z,4.73
2022-12-06T18:39:32.501Z,4.73
2022-12-06T18:40:04.429Z,4.73
2022-12-06T18:40:36.452Z,4.68
2022-12-06T18:41:08.268Z,4.68
2022-12-06T18:41:40.085Z,4.69
2022-12-06T18:42:11.913Z,4.69
2022-12-06T18:42:43.743Z,4.68
2022-12-06T18:43:15.567Z,4.68
2022-12-06T18:43:47.403Z,4.68
2022-12-06T18:44:19.240Z,4.71
2022-12-06T18:44:56.552Z,4.71
2022-12-06T18:45:29.999Z,4.71
2022-12-06T18:46:01.961Z,4.71
2022-12-06T18:46:33.866Z,4.72
2022-12-06T18:47:05.736Z,4.71
2022-12-06T18:47:37.575Z,4.71
2022-12-06T18:48:09.409Z,4.71
2022-12-06T18:48:41.232Z,4.71
2022-12-06T18:49:13.072Z,4.71
2022-12-06T18:49:44.935Z,4.71
2022-12-06T18:50:16.764Z,4.71
2022-12-06T18:50:48.571Z,4.71
2022-12-06T18:51:20.412Z,4.65
2022-12-06T18:51:52.238Z,4.65
2022-12-06T18:52:24.057Z,4.65
2022-12-06T18:52:55.878Z,4.64
2022-12-06T18:53:27.692Z,4.73
2022-12-06T18:53:59.528Z,4.61
2022-12-06T18:54:31.345Z,4.66
2022-12-06T18:55:03.491Z,4.66
2022-12-06T18:55:35.596Z,4.67
2022-12-06T18:56:08.659Z,4.66
2022-12-06T18:56:40.491Z,4.68
2022-12-06T18:57:12.310Z,4.68
2022-12-06T18:57:44.137Z,4.68
2022-12-06T18:58:15.967Z,4.69
2022-12-06T18:58:47.779Z,4.69
2022-12-06T18:59:24.457Z,4.69
2022-12-06T18:59:59.357Z,4.68
2022-12-06T19:00:31.526Z,4.68
2022-12-06T19:01:03.386Z,4.68
2022-12-06T19:01:35.371Z,4.68
2022-12-06T19:02:07.275Z,4.66
2022-12-06T19:02:39.203Z,4.68
2022-12-06T19:03:11.074Z,4.65
2022-12-06T19:03:42.888Z,4.64
2022-12-06T19:04:14.831Z,4.63
2022-12-06T19:04:46.795Z,4.49
2022-12-06T19:05:27.806Z,4.50
2022-12-06T19:06:05.047Z,4.52
2022-12-06T19:06:36.885Z,4.52
2022-12-06T19:07:08.746Z,4.54
2022-12-06T19:07:40.625Z,4.82
2022-12-06T19:08:12.557Z,4.83
2022-12-06T19:08:44.456Z,4.83
2022-12-06T19:09:16.440Z,4.68
